createdAt,value
2019-04-20T00:01:31.717Z,8.48
2019-04-20T00:03:56.310Z,8.49
2019-04-20T00:06:25.025Z,8.50
2019-04-20T00:08:59.847Z,8.54
2019-04-20T00:11:28.174Z,8.39
2019-04-20T00:14:01.880Z,8.29
2019-04-20T00:16:23.295Z,8.22
2019-04-20T00:18:55.447Z,8.24
2019-04-20T00:21:47.027Z,8.24
2019-04-20T00:24:16.895Z,8.23
2019-04-20T00:27:10.177Z,8.24
2019-04-20T00:29:29.398Z,8.31
2019-04-20T00:31:52.325Z,8.23
2019-04-20T00:34:19.284Z,8.27
2019-04-20T00:36:41.346Z,8.31
2019-04-20T00:39:12.871Z,8.27
2019-04-20T00:41:44.148Z,8.15
2019-04-20T00:44:16.149Z,7.99
2019-04-20T00:46:53.157Z,7.95
2019-04-20T00:49:25.368Z,8.07
2019-04-20T00:52:05.147Z,8.25
2019-04-20T00:54:09.815Z,8.30
2019-04-20T00:56:39.245Z,8.37
2019-04-20T00:59:20.521Z,8.37
2019-04-20T01:01:52.365Z,8.35
2019-04-20T01:04:27.196Z,8.36
2019-04-20T01:06:53.887Z,8.33
2019-04-20T01:09:14.072Z,8.28
2019-04-20T01:11:45.533Z,8.20
2019-04-20T01:14:14.598Z,8.13
2019-04-20T01:16:50.547Z,7.94
2019-04-20T01:19:12.403Z,7.79
2019-04-20T01:21:43.085Z,7.53
2019-04-20T01:24:16.218Z,7.40
2019-04-20T01:26:43.703Z,7.31
2019-04-20T01:29:23.772Z,7.27
2019-04-20T01:31:57.071Z,7.19
2019-04-20T01:34:26.528Z,7.29
2019-04-20T01:36:55.995Z,7.46
2019-04-20T01:39:21.768Z,7.61
2019-04-20T01:41:41.354Z,7.64
2019-04-20T01:44:09.615Z,7.66
2019-04-20T01:46:39.105Z,7.64
2019-04-20T01:49:14.817Z,7.78
2019-04-20T01:51:47.030Z,7.87
2019-04-20T01:54:23.453Z,7.97
2019-04-20T01:56:52.265Z,8.04
2019-04-20T01:59:27.477Z,7.94
2019-04-20T02:01:55.655Z,7.47
2019-04-20T02:04:27.959Z,7.13
2019-04-20T02:06:58.159Z,7.18
2019-04-20T02:09:26.385Z,7.04
2019-04-20T02:11:55.093Z,6.90
2019-04-20T02:14:32.144Z,7.00
2019-04-20T02:17:06.951Z,7.21
2019-04-20T02:19:40.538Z,7.17
2019-04-20T02:22:06.252Z,7.20
2019-04-20T02:24:23.888Z,7.12
2019-04-20T02:26:52.114Z,7.06
2019-04-20T02:29:39.875Z,7.09
2019-04-20T02:32:26.589Z,7.16
2019-04-20T02:34:55.624Z,7.24
2019-04-20T02:37:53.869Z,7.21
2019-04-20T02:40:09.118Z,7.06
2019-04-20T02:42:48.160Z,7.06
2019-04-20T02:47:41.451Z,6.91
2019-04-20T02:50:07.481Z,6.79
2019-04-20T02:52:49.286Z,6.65
2019-04-20T02:55:09.401Z,6.65
2019-04-20T02:57:40.396Z,6.66
2019-04-20T03:02:23.548Z,6.67
2019-04-20T03:04:45.250Z,6.78
2019-04-20T03:07:19.557Z,6.67
2019-04-20T03:09:56.306Z,6.66
2019-04-20T03:12:34.448Z,6.66
2019-04-20T03:14:51.475Z,6.60
2019-04-20T03:17:29.694Z,6.65
2019-04-20T03:19:47.640Z,6.53
2019-04-20T03:22:35.234Z,6.58
2019-04-20T03:25:03.953Z,6.61
2019-04-20T03:27:25.394Z,6.59
2019-04-20T03:30:03.637Z,6.51
2019-04-20T03:35:22.619Z,6.47
2019-04-20T03:37:42.628Z,6.30
2019-04-20T03:40:01.370Z,6.35
2019-04-20T03:42:16.348Z,6.31
2019-04-20T03:44:52.965Z,6.27
2019-04-20T03:47:31.568Z,6.34
2019-04-20T03:50:07.650Z,6.37
2019-04-20T03:52:44.965Z,6.51
2019-04-20T03:58:27.689Z,6.63
2019-04-20T04:01:03.824Z,6.62
2019-04-20T04:03:47.198Z,6.46
2019-04-20T04:06:05.463Z,6.28
2019-04-20T04:08:30.370Z,6.18
2019-04-20T04:11:12.336Z,6.18
2019-04-20T04:13:24.932Z,6.20
2019-04-20T04:15:59.339Z,6.12
2019-04-20T04:18:29.748Z,5.78
2019-04-20T04:21:01.446Z,5.76
2019-04-20T04:23:40.792Z,5.83
2019-04-20T04:26:10.093Z,5.66
2019-04-20T04:28:53.812Z,5.65
2019-04-20T04:31:12.118Z,5.59
2019-04-20T04:36:10.153Z,5.62
2019-04-20T04:41:20.213Z,5.85
2019-04-20T04:43:40.793Z,5.99
2019-04-20T04:45:53.864Z,6.12
2019-04-20T04:48:28.235Z,6.31
2019-04-20T04:50:58.019Z,6.43
2019-04-20T04:53:30.324Z,6.50
2019-04-20T04:55:58.567Z,6.44
2019-04-20T04:58:23.574Z,6.51
2019-04-20T05:00:56.545Z,6.59
2019-04-20T05:03:42.756Z,6.65
2019-04-20T05:06:11.735Z,6.61
2019-04-20T05:08:32.641Z,6.69
2019-04-20T05:10:56.213Z,6.66
2019-04-20T05:13:27.690Z,6.62
2019-04-20T05:16:10.951Z,6.42
2019-04-20T05:18:51.246Z,6.26
2019-04-20T05:21:15.415Z,6.34
2019-04-20T05:23:47.048Z,6.48
2019-04-20T05:26:39.323Z,6.56
2019-04-20T05:31:30.904Z,6.74
2019-04-20T05:34:17.061Z,6.81
2019-04-20T05:36:41.505Z,6.82
2019-04-20T05:39:21.498Z,6.85
2019-04-20T05:41:41.762Z,6.86
2019-04-20T05:44:11.513Z,6.85
2019-04-20T05:46:44.589Z,6.74
2019-04-20T05:49:17.133Z,6.71
2019-04-20T05:51:46.170Z,6.78
2019-04-20T05:54:15.534Z,6.89
2019-04-20T05:56:45.857Z,7.03
2019-04-20T05:59:11.642Z,7.19
2019-04-20T06:01:53.165Z,7.22
2019-04-20T06:04:17.347Z,7.21
2019-04-20T06:06:44.681Z,7.34
2019-04-20T06:09:20.709Z,7.32
2019-04-20T06:11:55.040Z,7.40
2019-04-20T06:14:05.887Z,7.53
2019-04-20T06:16:56.941Z,7.73
2019-04-20T06:19:26.376Z,7.72
2019-04-20T06:21:58.503Z,7.82
2019-04-20T06:24:37.822Z,7.97
2019-04-20T06:27:04.853Z,8.16
2019-04-20T06:29:22.136Z,8.37
2019-04-20T06:31:57.667Z,8.53
2019-04-20T06:34:33.086Z,8.62
2019-04-20T06:36:58.370Z,8.70
2019-04-20T06:39:46.483Z,8.81
2019-04-20T06:49:35.418Z,9.06
2019-04-20T06:52:25.588Z,9.13
2019-04-20T06:55:03.449Z,9.24
2019-04-20T06:57:38.036Z,9.37
2019-04-20T07:00:10.314Z,9.48
2019-04-20T07:02:37.036Z,9.60
2019-04-20T07:05:05.384Z,9.69
2019-04-20T07:07:41.982Z,9.84
2019-04-20T07:12:34.380Z,10.04
2019-04-20T07:14:55.542Z,10.13
2019-04-20T07:17:46.022Z,10.34
2019-04-20T07:20:04.189Z,10.47
2019-04-20T07:22:46.156Z,10.61
2019-04-20T07:25:14.409Z,10.70
2019-04-20T07:27:49.025Z,10.84
2019-04-20T07:30:13.729Z,11.00
2019-04-20T07:32:52.458Z,11.17
2019-04-20T07:35:14.442Z,11.28
2019-04-20T07:38:13.807Z,11.41
2019-04-20T07:40:15.119Z,11.52
2019-04-20T07:42:47.963Z,11.63
2019-04-20T07:45:24.612Z,11.76
2019-04-20T07:47:52.477Z,11.85
2019-04-20T07:50:12.904Z,11.91
2019-04-20T07:52:42.183Z,12.03
2019-04-20T07:55:33.370Z,12.14
2019-04-20T07:57:42.840Z,12.31
2019-04-20T08:00:19.896Z,12.38
2019-04-20T08:03:12.418Z,12.54
2019-04-20T08:05:36.748Z,12.72
2019-04-20T08:08:15.783Z,12.94
2019-04-20T08:10:46.980Z,13.11
2019-04-20T08:15:51.241Z,13.48
2019-04-20T08:18:21.497Z,13.58
2019-04-20T08:20:49.441Z,13.77
2019-04-20T08:23:21.974Z,13.82
2019-04-20T08:25:39.021Z,14.00
2019-04-20T08:28:13.667Z,14.03
2019-04-20T08:31:06.598Z,14.16
2019-04-20T08:33:47.098Z,14.36
2019-04-20T08:36:13.572Z,14.37
2019-04-20T08:39:08.260Z,14.47
2019-04-20T08:41:07.270Z,14.57
2019-04-20T08:43:49.649Z,14.69
2019-04-20T08:46:12.191Z,14.72
2019-04-20T08:48:40.827Z,14.75
2019-04-20T08:51:07.445Z,14.96
2019-04-20T08:53:42.063Z,15.03
2019-04-20T08:56:05.836Z,15.14
2019-04-20T08:58:20.402Z,15.23
2019-04-20T09:00:53.695Z,15.41
2019-04-20T09:03:25.398Z,15.42
2019-04-20T09:06:00.531Z,15.60
2019-04-20T09:08:26.304Z,15.79
2019-04-20T09:11:07.019Z,15.90
2019-04-20T09:13:27.057Z,15.81
2019-04-20T09:15:49.350Z,16.11
2019-04-20T09:18:29.066Z,16.20
2019-04-20T09:21:01.206Z,16.18
2019-04-20T09:23:38.153Z,16.37
2019-04-20T09:26:29.752Z,16.33
2019-04-20T09:28:38.409Z,16.49
2019-04-20T09:31:18.051Z,16.79
2019-04-20T09:33:51.390Z,16.76
2019-04-20T09:36:35.216Z,16.87
2019-04-20T09:39:15.288Z,16.91
2019-04-20T09:41:59.738Z,17.27
2019-04-20T09:44:13.377Z,18.03
2019-04-20T09:46:48.513Z,20.93
2019-04-20T09:49:20.649Z,20.93
2019-04-20T09:51:58.572Z,22.09
2019-04-20T09:54:34.061Z,21.97
2019-04-20T09:57:03.563Z,22.51
2019-04-20T09:59:31.589Z,23.77
2019-04-20T10:01:46.809Z,24.25
2019-04-20T10:04:13.174Z,24.96
2019-04-20T10:06:41.521Z,25.33
2019-04-20T10:09:09.824Z,25.15
2019-04-20T10:11:40.854Z,25.45
2019-04-20T10:14:08.274Z,24.13
2019-04-20T10:16:37.732Z,23.44
2019-04-20T10:19:08.737Z,23.03
2019-04-20T10:21:36.358Z,22.80
2019-04-20T10:24:04.637Z,23.54
2019-04-20T10:26:32.889Z,24.95
2019-04-20T10:29:01.590Z,25.41
2019-04-20T10:31:30.748Z,25.91
2019-04-20T10:33:59.791Z,25.65
2019-04-20T10:36:35.772Z,24.71
2019-04-20T10:39:06.638Z,25.85
2019-04-20T10:41:44.530Z,26.76
2019-04-20T10:44:04.991Z,25.58
2019-04-20T10:46:33.342Z,25.26
2019-04-20T10:49:04.252Z,24.57
2019-04-20T10:51:31.653Z,23.10
2019-04-20T10:54:00.432Z,24.57
2019-04-20T10:56:29.529Z,25.69
2019-04-20T10:58:58.019Z,25.76
2019-04-20T11:01:27.450Z,25.02
2019-04-20T11:03:56.448Z,25.46
2019-04-20T11:06:24.897Z,25.30
2019-04-20T11:08:53.169Z,23.94
2019-04-20T11:11:26.496Z,23.89
2019-04-20T11:13:51.440Z,24.91
2019-04-20T11:16:20.220Z,26.25
2019-04-20T11:18:49.626Z,26.32
2019-04-20T11:21:17.968Z,26.85
2019-04-20T11:23:46.564Z,27.02
2019-04-20T11:26:16.139Z,26.66
2019-04-20T11:28:44.161Z,26.29
2019-04-20T11:31:12.610Z,26.03
2019-04-20T11:33:40.881Z,24.30
2019-04-20T11:36:09.439Z,24.60
2019-04-20T11:38:38.694Z,23.19
2019-04-20T11:41:14.388Z,24.00
2019-04-20T11:43:37.700Z,24.40
2019-04-20T11:46:06.862Z,25.69
2019-04-20T11:48:35.199Z,26.88
2019-04-20T11:51:03.547Z,26.68
2019-04-20T11:53:32.236Z,26.62
2019-04-20T11:56:00.609Z,26.88
2019-04-20T11:58:30.242Z,26.23
2019-04-20T12:01:08.542Z,25.46
2019-04-20T12:03:41.384Z,25.27
2019-04-20T12:06:04.550Z,24.63
2019-04-20T12:08:32.177Z,25.66
2019-04-20T12:11:03.249Z,26.54
2019-04-20T12:13:30.999Z,25.87
2019-04-20T12:15:59.486Z,25.95
2019-04-20T12:18:27.773Z,25.09
2019-04-20T12:20:56.720Z,25.78
2019-04-20T12:23:26.400Z,26.82
2019-04-20T12:25:54.734Z,27.37
2019-04-20T12:28:23.011Z,27.92
2019-04-20T12:30:51.559Z,28.67
2019-04-20T12:33:20.024Z,29.01
2019-04-20T12:35:48.277Z,28.83
2019-04-20T12:38:17.124Z,28.94
2019-04-20T12:40:46.185Z,28.98
2019-04-20T12:43:15.182Z,29.00
2019-04-20T12:45:44.140Z,28.95
2019-04-20T12:48:13.507Z,27.13
2019-04-20T12:50:43.635Z,26.25
2019-04-20T12:53:12.845Z,26.56
2019-04-20T12:55:41.206Z,27.15
2019-04-20T12:58:10.518Z,27.61
2019-04-20T13:00:45.918Z,27.83
2019-04-20T13:03:14.367Z,28.19
2019-04-20T13:05:43.601Z,28.65
2019-04-20T13:08:13.828Z,28.42
2019-04-20T13:10:44.482Z,28.62
2019-04-20T13:13:16.950Z,25.83
2019-04-20T13:15:46.861Z,24.47
2019-04-20T13:18:19.438Z,24.43
2019-04-20T13:20:48.026Z,24.36
2019-04-20T13:23:17.233Z,24.56
2019-04-20T13:25:46.608Z,25.68
2019-04-20T13:28:15.013Z,26.43
2019-04-20T13:30:43.897Z,27.22
2019-04-20T13:33:12.217Z,27.82
2019-04-20T13:35:40.609Z,27.99
2019-04-20T13:38:10.038Z,27.43
2019-04-20T13:40:39.720Z,26.94
2019-04-20T13:43:08.103Z,26.72
2019-04-20T13:45:37.179Z,26.93
2019-04-20T13:48:06.660Z,27.18
2019-04-20T13:50:36.016Z,26.70
2019-04-20T13:53:03.677Z,27.33
2019-04-20T13:55:31.947Z,27.10
2019-04-20T13:58:07.694Z,25.03
2019-04-20T14:00:42.876Z,25.86
2019-04-20T14:03:18.759Z,26.89
2019-04-20T14:05:47.064Z,27.41
2019-04-20T14:08:17.630Z,26.27
2019-04-20T14:10:47.194Z,26.62
2019-04-20T14:13:18.694Z,27.27
2019-04-20T14:15:47.032Z,27.57
2019-04-20T14:18:15.337Z,27.71
2019-04-20T14:20:44.665Z,27.68
2019-04-20T14:23:12.958Z,27.58
2019-04-20T14:25:41.268Z,27.06
2019-04-20T14:28:09.513Z,26.69
2019-04-20T14:30:38.513Z,26.69
2019-04-20T14:33:06.748Z,27.08
2019-04-20T14:35:36.793Z,27.02
2019-04-20T14:38:05.895Z,26.43
2019-04-20T14:40:34.514Z,24.83
2019-04-20T14:43:03.465Z,23.73
2019-04-20T14:45:32.363Z,23.17
2019-04-20T14:48:01.642Z,23.19
2019-04-20T14:50:29.836Z,23.43
2019-04-20T14:52:58.117Z,23.96
2019-04-20T14:55:26.433Z,24.86
2019-04-20T14:57:57.397Z,25.30
2019-04-20T15:00:53.343Z,25.52
2019-04-20T15:03:36.714Z,25.75
2019-04-20T15:06:03.386Z,25.94
2019-04-20T15:08:32.508Z,25.71
2019-04-20T15:11:01.080Z,24.81
2019-04-20T15:13:30.546Z,24.20
2019-04-20T15:15:59.068Z,24.04
2019-04-20T15:18:29.361Z,24.65
2019-04-20T15:20:59.603Z,25.39
2019-04-20T15:23:27.940Z,25.79
2019-04-20T15:25:56.168Z,26.08
2019-04-20T15:28:24.428Z,26.57
2019-04-20T15:30:54.055Z,26.74
2019-04-20T15:33:23.064Z,26.73
2019-04-20T15:35:52.512Z,26.79
2019-04-20T15:38:20.971Z,26.43
2019-04-20T15:40:49.286Z,24.80
2019-04-20T15:43:20.913Z,24.08
2019-04-20T15:45:47.605Z,24.11
2019-04-20T15:48:16.338Z,24.60
2019-04-20T15:50:45.763Z,25.07
2019-04-20T15:53:13.557Z,25.40
2019-04-20T15:55:43.814Z,25.11
2019-04-20T15:58:12.282Z,24.22
2019-04-20T16:00:40.695Z,23.46
2019-04-20T16:03:13.249Z,23.08
2019-04-20T16:05:56.623Z,23.12
2019-04-20T16:08:36.715Z,23.30
2019-04-20T16:11:06.824Z,23.18
2019-04-20T16:13:39.552Z,22.88
2019-04-20T16:16:05.860Z,22.68
2019-04-20T16:18:34.951Z,23.08
2019-04-20T16:21:07.952Z,23.19
2019-04-20T16:23:34.933Z,23.35
2019-04-20T16:26:07.915Z,23.41
2019-04-20T16:28:37.443Z,22.79
2019-04-20T16:31:09.682Z,22.38
2019-04-20T16:33:36.690Z,22.87
2019-04-20T16:36:04.975Z,22.79
2019-04-20T16:38:33.247Z,23.20
2019-04-20T16:41:02.191Z,23.16
2019-04-20T16:43:36.522Z,23.04
2019-04-20T16:46:01.381Z,22.89
2019-04-20T16:48:30.409Z,22.88
2019-04-20T16:50:58.767Z,22.97
2019-04-20T16:53:27.032Z,22.94
2019-04-20T16:55:55.316Z,22.88
2019-04-20T16:58:23.877Z,22.67
2019-04-20T17:00:52.153Z,22.58
2019-04-20T17:03:22.923Z,22.74
2019-04-20T17:05:52.356Z,22.66
2019-04-20T17:08:20.918Z,22.48
2019-04-20T17:10:49.360Z,22.37
2019-04-20T17:13:28.410Z,22.37
2019-04-20T17:15:47.996Z,22.40
2019-04-20T17:18:16.334Z,22.46
2019-04-20T17:20:44.581Z,22.37
2019-04-20T17:23:13.157Z,21.97
2019-04-20T17:25:41.936Z,21.90
2019-04-20T17:31:09.151Z,21.67
2019-04-20T17:33:55.318Z,21.54
2019-04-20T17:36:19.006Z,21.37
2019-04-20T17:38:48.461Z,21.15
2019-04-20T17:41:39.109Z,20.95
2019-04-20T17:44:00.240Z,20.88
2019-04-20T17:46:31.465Z,20.72
2019-04-20T17:49:00.666Z,20.52
2019-04-20T17:51:34.661Z,20.30
2019-04-20T17:53:52.764Z,20.09
2019-04-20T17:56:15.223Z,19.88
2019-04-20T17:58:43.959Z,19.73
2019-04-20T18:04:49.470Z,19.27
2019-04-20T18:07:00.645Z,18.84
2019-04-20T18:09:44.555Z,18.84
2019-04-20T18:11:55.267Z,18.75
2019-04-20T18:14:37.485Z,18.62
2019-04-20T18:17:15.136Z,18.48
2019-04-20T18:19:34.820Z,18.42
2019-04-20T18:22:05.803Z,18.30
2019-04-20T18:24:58.267Z,18.28
2019-04-20T18:27:27.560Z,18.07
2019-04-20T18:29:53.172Z,18.07
2019-04-20T18:32:23.074Z,18.08
2019-04-20T18:35:00.860Z,18.03
2019-04-20T18:37:27.428Z,17.95
2019-04-20T18:40:02.578Z,17.87
2019-04-20T18:42:32.373Z,17.79
2019-04-20T18:45:14.239Z,17.69
2019-04-20T18:47:48.032Z,17.62
2019-04-20T18:50:07.744Z,17.51
2019-04-20T18:52:27.540Z,17.46
2019-04-20T18:54:57.432Z,17.39
2019-04-20T18:57:29.240Z,17.32
2019-04-20T18:59:58.471Z,17.24
2019-04-20T19:02:30.910Z,17.20
2019-04-20T19:04:58.605Z,17.17
2019-04-20T19:07:25.930Z,17.07
2019-04-20T19:10:02.615Z,16.93
2019-04-20T19:12:31.168Z,16.80
2019-04-20T19:15:19.209Z,16.66
2019-04-20T19:20:30.691Z,16.30
2019-04-20T19:23:00.066Z,16.23
2019-04-20T19:25:34.325Z,16.21
2019-04-20T19:28:00.101Z,16.28
2019-04-20T19:30:37.308Z,16.41
2019-04-20T19:33:14.732Z,16.42
2019-04-20T19:35:40.521Z,16.04
2019-04-20T19:38:09.193Z,16.04
2019-04-20T19:40:40.719Z,16.02
2019-04-20T19:43:08.134Z,15.90
2019-04-20T19:45:46.409Z,15.81
2019-04-20T19:48:12.165Z,15.78
2019-04-20T19:50:54.715Z,15.75
2019-04-20T19:53:24.678Z,15.72
2019-04-20T19:55:43.973Z,15.59
2019-04-20T19:58:11.488Z,15.62
2019-04-20T20:00:51.181Z,15.62
2019-04-20T20:03:17.782Z,15.58
2019-04-20T20:05:48.089Z,15.54
2019-04-20T20:08:20.896Z,15.44
2019-04-20T20:10:46.060Z,15.33
2019-04-20T20:13:14.993Z,15.26
2019-04-20T20:15:45.119Z,15.21
2019-04-20T20:18:30.663Z,15.16
2019-04-20T20:21:02.278Z,15.11
2019-04-20T20:23:14.244Z,15.02
2019-04-20T20:25:46.475Z,14.97
2019-04-20T20:28:25.485Z,14.86
2019-04-20T20:30:58.182Z,14.80
2019-04-20T20:33:27.925Z,14.67
2019-04-20T20:35:53.003Z,14.52
2019-04-20T20:38:21.530Z,14.51
2019-04-20T20:40:54.953Z,14.54
2019-04-20T20:43:23.115Z,14.53
2019-04-20T20:45:56.439Z,14.50
2019-04-20T20:48:31.366Z,14.53
2019-04-20T20:50:57.360Z,14.55
2019-04-20T20:53:21.844Z,14.64
2019-04-20T20:55:46.491Z,14.71
2019-04-20T20:58:18.153Z,14.69
2019-04-20T21:00:54.447Z,14.63
2019-04-20T21:03:22.221Z,14.55
2019-04-20T21:05:43.108Z,14.47
2019-04-20T21:08:11.436Z,14.37
2019-04-20T21:10:42.117Z,14.31
2019-04-20T21:13:11.803Z,14.24
2019-04-20T21:15:40.596Z,14.19
2019-04-20T21:18:33.256Z,13.98
2019-04-20T21:20:53.889Z,13.98
2019-04-20T21:23:23.946Z,13.94
2019-04-20T21:25:47.559Z,13.62
2019-04-20T21:28:13.214Z,13.28
2019-04-20T21:30:46.421Z,12.87
2019-04-20T21:33:13.043Z,12.76
2019-04-20T21:35:44.978Z,12.69
2019-04-20T21:38:14.907Z,12.73
2019-04-20T21:40:45.912Z,12.86
2019-04-20T21:43:13.192Z,12.69
2019-04-20T21:45:48.334Z,12.69
2019-04-20T21:48:31.858Z,12.73
2019-04-20T21:50:58.256Z,12.14
2019-04-20T21:53:19.551Z,12.25
2019-04-20T21:55:41.904Z,12.35
2019-04-20T21:58:10.382Z,12.03
2019-04-20T22:01:05.166Z,11.98
2019-04-20T22:03:24.705Z,11.72
2019-04-20T22:05:56.419Z,11.82
2019-04-20T22:08:24.706Z,11.71
2019-04-20T22:10:53.483Z,11.70
2019-04-20T22:13:26.762Z,11.60
2019-04-20T22:15:59.499Z,11.66
2019-04-20T22:18:23.518Z,11.48
2019-04-20T22:21:03.528Z,11.46
2019-04-20T22:23:40.704Z,11.17
2019-04-20T22:26:03.960Z,11.16
2019-04-20T22:28:22.265Z,11.05
2019-04-20T22:30:50.909Z,11.14
2019-04-20T22:33:29.835Z,11.36
2019-04-20T22:36:00.948Z,11.35
2019-04-20T22:38:28.868Z,11.50
2019-04-20T22:41:03.933Z,11.28
2019-04-20T22:43:31.392Z,11.28
2019-04-20T22:45:57.277Z,11.42
2019-04-20T22:48:25.526Z,11.33
2019-04-20T22:51:15.330Z,11.36
2019-04-20T22:53:36.483Z,11.18
2019-04-20T22:56:15.271Z,11.09
2019-04-20T22:58:38.462Z,10.86
2019-04-20T23:00:59.190Z,10.93
2019-04-20T23:03:25.005Z,10.91
2019-04-20T23:05:54.434Z,10.72
2019-04-20T23:08:22.771Z,10.16
2019-04-20T23:10:51.436Z,10.06
2019-04-20T23:13:23.231Z,9.81
2019-04-20T23:15:55.149Z,9.87
2019-04-20T23:18:20.222Z,9.96
2019-04-20T23:20:49.978Z,9.98
2019-04-20T23:23:21.108Z,10.00
2019-04-20T23:25:47.636Z,9.95
2019-04-20T23:28:17.861Z,9.78
2019-04-20T23:30:45.789Z,9.48
2019-04-20T23:33:16.069Z,9.60
2019-04-20T23:35:49.807Z,9.68
2019-04-20T23:38:19.528Z,9.65
2019-04-20T23:40:45.772Z,9.78
2019-04-20T23:43:24.430Z,9.86
2019-04-20T23:46:03.388Z,9.86
2019-04-20T23:48:41.192Z,9.75
2019-04-20T23:51:29.589Z,9.69
2019-04-20T23:53:49.210Z,9.82
2019-04-20T23:56:06.226Z,9.70
2019-04-20T23:58:40.616Z,9.62
